createdAt,value
2023-05-24T00:00:06.292Z,102513.81
2023-05-24T00:02:32.846Z,102517.09
2023-05-24T00:05:01.096Z,102514.31
2023-05-24T00:07:27.880Z,102511.69
2023-05-24T00:09:54.404Z,102508.69
2023-05-24T00:12:20.898Z,102501.38
2023-05-24T00:14:47.433Z,102510.06
2023-05-24T00:17:14.080Z,102494.00
2023-05-24T00:19:40.661Z,102492.19
2023-05-24T00:22:07.276Z,102493.63
2023-05-24T00:24:33.796Z,102500.50
2023-05-24T00:27:01.062Z,102494.28
2023-05-24T00:29:27.685Z,102501.94
2023-05-24T00:31:54.720Z,102490.31
2023-05-24T00:34:21.215Z,102500.25
2023-05-24T00:36:47.722Z,102503.22
2023-05-24T00:39:14.292Z,102493.09
2023-05-24T00:41:40.802Z,102484.41
2023-05-24T00:44:07.408Z,102489.38
2023-05-24T00:46:35.162Z,102492.19
2023-05-24T00:49:01.845Z,102485.44
2023-05-24T00:51:28.717Z,102478.25
2023-05-24T00:53:56.171Z,102477.44
2023-05-24T00:56:23.312Z,102470.50
2023-05-24T00:58:54.501Z,102472.41
2023-05-24T01:01:21.058Z,102469.13
2023-05-24T01:03:48.195Z,102475.09
2023-05-24T01:06:16.234Z,102468.44
2023-05-24T01:09:05.016Z,102472.25
2023-05-24T01:11:55.872Z,102475.44
2023-05-24T01:14:40.924Z,102469.47
2023-05-24T01:17:20.950Z,102472.47
2023-05-24T01:20:10.119Z,102464.06
2023-05-24T01:22:58.353Z,102475.19
2023-05-24T01:25:46.937Z,102467.94
2023-05-24T01:28:13.830Z,102471.09
2023-05-24T01:30:41.640Z,102482.19
2023-05-24T01:33:08.900Z,102475.53
2023-05-24T01:35:40.257Z,102465.88
2023-05-24T01:38:07.241Z,102471.78
2023-05-24T01:40:34.222Z,102471.72
2023-05-24T01:43:26.372Z,102476.34
2023-05-24T01:45:55.809Z,102474.03
2023-05-24T01:48:28.989Z,102478.34
2023-05-24T01:50:59.759Z,102471.56
2023-05-24T01:53:32.790Z,102471.31
2023-05-24T01:56:02.145Z,102472.38
2023-05-24T01:58:30.402Z,102476.59
2023-05-24T02:00:58.012Z,102469.38
2023-05-24T02:03:24.596Z,102473.72
2023-05-24T02:05:51.481Z,102478.16
2023-05-24T02:08:17.988Z,102475.97
2023-05-24T02:10:44.630Z,102471.53
2023-05-24T02:13:11.213Z,102471.84
2023-05-24T02:15:37.786Z,102472.41
2023-05-24T02:18:04.776Z,102477.97
2023-05-24T02:20:31.543Z,102464.75
2023-05-24T02:22:58.325Z,102475.22
2023-05-24T02:25:24.917Z,102475.22
2023-05-24T02:27:52.194Z,102470.34
2023-05-24T02:30:18.923Z,102471.44
2023-05-24T02:32:45.543Z,102467.31
2023-05-24T02:35:12.568Z,102466.22
2023-05-24T02:37:39.086Z,102467.31
2023-05-24T02:40:06.476Z,102472.41
2023-05-24T02:42:32.982Z,102464.06
2023-05-24T02:44:59.476Z,102470.56
2023-05-24T02:47:29.243Z,102468.38
2023-05-24T02:49:57.076Z,102469.72
2023-05-24T02:52:23.856Z,102472.72
2023-05-24T02:54:50.611Z,102473.03
2023-05-24T02:57:17.134Z,102476.03
2023-05-24T02:59:44.031Z,102481.44
2023-05-24T03:02:13.678Z,102475.84
2023-05-24T03:04:40.351Z,102475.59
2023-05-24T03:07:06.912Z,102477.00
2023-05-24T03:09:33.582Z,102482.63
2023-05-24T03:12:00.113Z,102475.59
2023-05-24T03:14:26.631Z,102482.06
2023-05-24T03:16:53.173Z,102463.97
2023-05-24T03:19:19.683Z,102465.34
2023-05-24T03:21:46.160Z,102474.00
2023-05-24T03:24:13.287Z,102468.31
2023-05-24T03:26:42.867Z,102471.00
2023-05-24T03:29:09.393Z,102467.69
2023-05-24T03:31:36.062Z,102461.25
2023-05-24T03:34:02.650Z,102458.25
2023-05-24T03:36:29.313Z,102457.28
2023-05-24T03:38:58.288Z,102455.78
2023-05-24T03:41:25.094Z,102447.31
2023-05-24T03:43:52.497Z,102459.75
2023-05-24T03:46:19.194Z,102461.88
2023-05-24T03:48:45.763Z,102452.69
2023-05-24T03:51:12.466Z,102449.69
2023-05-24T03:53:39.164Z,102452.38
2023-05-24T03:56:05.950Z,102452.47
2023-05-24T03:58:32.455Z,102445.78
2023-05-24T04:00:59.080Z,102453.63
2023-05-24T04:03:26.319Z,102451.81
2023-05-24T04:05:53.733Z,102464.50
2023-05-24T04:08:20.512Z,102456.09
2023-05-24T04:10:47.082Z,102450.13
2023-05-24T04:13:13.593Z,102455.81
2023-05-24T04:15:40.640Z,102461.19
2023-05-24T04:18:07.346Z,102464.91
2023-05-24T04:20:33.984Z,102454.06
2023-05-24T04:23:00.614Z,102457.31
2023-05-24T04:25:27.615Z,102455.78
2023-05-24T04:27:54.288Z,102444.91
2023-05-24T04:30:21.509Z,102447.31
2023-05-24T04:32:48.601Z,102451.06
2023-05-24T04:35:16.760Z,102454.53
2023-05-24T04:37:44.514Z,102451.47
2023-05-24T04:40:11.701Z,102459.47
2023-05-24T04:42:38.453Z,102451.31
2023-05-24T04:45:05.730Z,102457.72
2023-05-24T04:47:32.328Z,102462.25
2023-05-24T04:49:58.831Z,102464.53
2023-05-24T04:52:25.441Z,102470.94
2023-05-24T04:54:51.962Z,102466.03
2023-05-24T04:57:18.520Z,102465.09
2023-05-24T04:59:45.075Z,102470.44
2023-05-24T05:02:11.654Z,102471.75
2023-05-24T05:04:38.293Z,102476.50
2023-05-24T05:07:04.993Z,102472.56
2023-05-24T05:09:31.625Z,102468.22
2023-05-24T05:11:58.463Z,102467.13
2023-05-24T05:14:24.982Z,102469.56
2023-05-24T05:16:51.556Z,102464.78
2023-05-24T05:19:19.141Z,102468.03
2023-05-24T05:21:45.873Z,102468.47
2023-05-24T05:24:12.698Z,102449.22
2023-05-24T05:26:39.235Z,102464.16
2023-05-24T05:29:05.804Z,102471.31
2023-05-24T05:31:32.426Z,102470.22
2023-05-24T05:33:59.022Z,102464.41
2023-05-24T05:36:25.712Z,102467.50
2023-05-24T05:38:52.219Z,102471.94
2023-05-24T05:41:18.825Z,102467.19
2023-05-24T05:43:45.367Z,102482.25
2023-05-24T05:46:13.334Z,102468.28
2023-05-24T05:48:39.849Z,102479.94
2023-05-24T05:51:06.433Z,102476.78
2023-05-24T05:53:36.200Z,102478.06
2023-05-24T05:56:02.691Z,102474.22
2023-05-24T05:58:29.152Z,102476.66
2023-05-24T06:00:55.829Z,102478.94
2023-05-24T06:03:22.536Z,102471.28
2023-05-24T06:05:49.406Z,102477.00
2023-05-24T06:08:15.931Z,102472.75
2023-05-24T06:10:42.732Z,102478.03
2023-05-24T06:13:09.448Z,102474.56
2023-05-24T06:15:35.925Z,102478.59
2023-05-24T06:18:02.545Z,102478.28
2023-05-24T06:20:29.346Z,102475.63
2023-05-24T06:22:57.112Z,102473.09
2023-05-24T06:25:24.523Z,102471.38
2023-05-24T06:27:54.439Z,102483.22
2023-05-24T06:30:20.969Z,102481.34
2023-05-24T06:32:47.615Z,102487.94
2023-05-24T06:35:14.236Z,102487.19
2023-05-24T06:37:40.879Z,102496.38
2023-05-24T06:40:09.576Z,102500.13
2023-05-24T06:42:36.961Z,102491.34
2023-05-24T06:45:03.921Z,102490.41
2023-05-24T06:47:30.622Z,102489.28
2023-05-24T06:49:57.523Z,102490.13
2023-05-24T06:52:24.144Z,102493.81
2023-05-24T06:54:50.682Z,102494.03
2023-05-24T06:57:17.177Z,102492.94
2023-05-24T06:59:43.760Z,102499.66
2023-05-24T07:02:17.281Z,102500.59
2023-05-24T07:04:43.886Z,102495.00
2023-05-24T07:07:13.118Z,102492.63
2023-05-24T07:09:41.562Z,102492.16
2023-05-24T07:12:09.093Z,102494.06
2023-05-24T07:14:36.134Z,102501.16
2023-05-24T07:17:02.851Z,102498.09
2023-05-24T07:19:29.830Z,102500.53
2023-05-24T07:21:56.848Z,102496.53
2023-05-24T07:24:24.145Z,102501.31
2023-05-24T07:26:51.986Z,102500.31
2023-05-24T07:29:18.538Z,102494.66
2023-05-24T07:31:45.509Z,102508.22
2023-05-24T07:34:12.064Z,102501.16
2023-05-24T07:36:38.560Z,102492.13
2023-05-24T07:39:06.230Z,102491.78
2023-05-24T07:41:33.478Z,102501.38
2023-05-24T07:44:00.217Z,102500.53
2023-05-24T07:46:26.757Z,102494.16
2023-05-24T07:48:53.461Z,102491.13
2023-05-24T07:51:20.876Z,102499.44
2023-05-24T07:53:47.451Z,102506.53
2023-05-24T07:56:14.078Z,102501.44
2023-05-24T07:58:41.907Z,102505.31
2023-05-24T08:01:08.789Z,102501.53
2023-05-24T08:03:36.702Z,102506.38
2023-05-24T08:06:04.149Z,102494.44
2023-05-24T08:08:30.849Z,102496.31
2023-05-24T08:10:57.377Z,102505.06
2023-05-24T08:13:24.509Z,102494.16
2023-05-24T08:15:50.990Z,102497.84
2023-05-24T08:18:17.476Z,102493.41
2023-05-24T08:20:44.038Z,102485.69
2023-05-24T08:23:10.653Z,102500.09
2023-05-24T08:25:37.992Z,102488.78
2023-05-24T08:28:04.528Z,102487.84
2023-05-24T08:30:32.397Z,102476.63
2023-05-24T08:32:58.966Z,102485.78
2023-05-24T08:35:25.675Z,102484.34
2023-05-24T08:37:52.212Z,102483.59
2023-05-24T08:40:18.873Z,102494.13
2023-05-24T08:42:46.541Z,102485.22
2023-05-24T08:45:15.070Z,102478.59
2023-05-24T08:47:42.597Z,102481.81
2023-05-24T08:50:10.230Z,102482.66
2023-05-24T08:52:37.118Z,102477.03
2023-05-24T08:55:07.735Z,102483.09
2023-05-24T08:57:39.166Z,102469.88
2023-05-24T09:00:11.830Z,102481.28
2023-05-24T09:02:43.450Z,102463.56
2023-05-24T09:05:11.843Z,102472.19
2023-05-24T09:07:38.856Z,102465.84
2023-05-24T09:10:07.480Z,102461.97
2023-05-24T09:12:38.604Z,102465.06
2023-05-24T09:15:07.234Z,102460.66
2023-05-24T09:17:38.348Z,102472.28
2023-05-24T09:20:11.243Z,102465.00
2023-05-24T09:22:41.020Z,102478.06
2023-05-24T09:25:10.011Z,102473.69
2023-05-24T09:27:36.884Z,102480.44
2023-05-24T09:30:05.552Z,102477.63
2023-05-24T09:32:32.391Z,102475.47
2023-05-24T09:34:59.466Z,102478.75
2023-05-24T09:37:32.292Z,102477.31
2023-05-24T09:39:59.780Z,102485.97
2023-05-24T09:42:28.629Z,102479.34
2023-05-24T09:45:08.726Z,102476.69
2023-05-24T09:47:36.877Z,102480.78
2023-05-24T09:50:06.735Z,102478.06
2023-05-24T09:52:37.035Z,102476.84
2023-05-24T09:55:17.686Z,102482.44
2023-05-24T09:57:45.662Z,102479.72
2023-05-24T10:00:21.725Z,102475.25
2023-05-24T10:03:00.977Z,102475.94
2023-05-24T10:05:27.820Z,102477.44
2023-05-24T10:07:55.299Z,102476.97
2023-05-24T10:10:22.805Z,102474.91
2023-05-24T10:12:50.284Z,102481.03
2023-05-24T10:15:17.099Z,102482.91
2023-05-24T10:17:43.624Z,102485.22
2023-05-24T10:20:12.575Z,102494.13
2023-05-24T10:22:48.079Z,102477.81
2023-05-24T10:25:20.609Z,102484.88
2023-05-24T10:27:51.215Z,102481.16
2023-05-24T10:30:43.815Z,102483.13
2023-05-24T10:33:13.984Z,102478.13
2023-05-24T10:35:41.433Z,102475.25
2023-05-24T10:38:09.088Z,102481.84
2023-05-24T10:40:41.317Z,102485.06
2023-05-24T10:43:11.229Z,102486.66
2023-05-24T10:45:41.991Z,102471.72
2023-05-24T10:48:14.602Z,102476.03
2023-05-24T10:50:42.676Z,102475.47
2023-05-24T10:53:16.049Z,102479.97
2023-05-24T10:55:56.499Z,102469.69
2023-05-24T10:58:47.261Z,102474.59
2023-05-24T11:01:34.945Z,102483.63
2023-05-24T11:04:18.947Z,102485.31
2023-05-24T11:06:48.102Z,102480.22
2023-05-24T11:09:16.036Z,102479.97
2023-05-24T11:11:45.912Z,102486.34
2023-05-24T11:14:13.656Z,102481.56
2023-05-24T11:16:40.758Z,102476.06
2023-05-24T11:19:22.061Z,102477.53
2023-05-24T11:21:50.924Z,102468.75
2023-05-24T11:24:18.998Z,102474.94
2023-05-24T11:26:46.253Z,102466.59
2023-05-24T11:29:17.574Z,102474.38
2023-05-24T11:31:54.627Z,102476.75
2023-05-24T11:34:21.894Z,102473.94
2023-05-24T11:36:49.049Z,102468.16
2023-05-24T11:39:16.387Z,102475.88
2023-05-24T11:41:43.704Z,102466.13
2023-05-24T11:44:11.852Z,102470.03
2023-05-24T11:46:39.893Z,102471.91
2023-05-24T11:49:07.030Z,102470.41
2023-05-24T11:51:35.912Z,102467.38
2023-05-24T11:54:02.651Z,102462.66
2023-05-24T11:56:33.180Z,102470.31
2023-05-24T11:59:11.115Z,102457.56
2023-05-24T12:01:38.335Z,102463.44
2023-05-24T12:04:11.994Z,102473.38
2023-05-24T12:06:43.889Z,102464.50
2023-05-24T12:09:13.628Z,102463.09
2023-05-24T12:11:46.621Z,102465.31
2023-05-24T12:14:28.615Z,102462.22
2023-05-24T12:16:57.226Z,102464.16
2023-05-24T12:19:33.786Z,102460.06
2023-05-24T12:22:02.031Z,102461.28
2023-05-24T12:24:29.292Z,102462.34
2023-05-24T12:27:06.697Z,102450.91
2023-05-24T12:29:41.890Z,102453.47
2023-05-24T12:32:15.282Z,102447.31
2023-05-24T12:34:43.540Z,102448.47
2023-05-24T12:37:12.965Z,102454.47
2023-05-24T12:39:42.552Z,102457.19
2023-05-24T12:42:12.383Z,102457.63
2023-05-24T12:44:39.690Z,102455.84
2023-05-24T12:47:08.649Z,102454.31
2023-05-24T12:49:36.270Z,102451.72
2023-05-24T12:52:03.414Z,102459.69
2023-05-24T12:54:30.490Z,102460.94
2023-05-24T12:57:00.051Z,102460.97
2023-05-24T12:59:28.563Z,102452.13
2023-05-24T13:01:55.750Z,102439.06
2023-05-24T13:04:24.518Z,102450.94
2023-05-24T13:06:51.214Z,102462.16
2023-05-24T13:09:22.128Z,102459.25
2023-05-24T13:11:49.079Z,102458.22
2023-05-24T13:14:16.968Z,102458.16
2023-05-24T13:16:44.383Z,102457.25
2023-05-24T13:19:12.541Z,102459.16
2023-05-24T13:21:39.910Z,102462.16
2023-05-24T13:24:07.638Z,102460.06
2023-05-24T13:26:38.484Z,102464.75
2023-05-24T13:31:38.168Z,102462.19
2023-05-24T13:34:05.492Z,102465.63
2023-05-24T13:36:32.580Z,102462.09
2023-05-24T13:39:13.306Z,102450.84
2023-05-24T13:41:42.246Z,102452.97
2023-05-24T13:44:10.195Z,102446.69
2023-05-24T13:46:37.438Z,102443.47
2023-05-24T13:49:05.016Z,102447.97
2023-05-24T13:51:31.895Z,102454.16
2023-05-24T13:53:59.059Z,102452.88
2023-05-24T13:56:27.362Z,102457.13
2023-05-24T13:58:55.182Z,102452.94
2023-05-24T14:01:22.158Z,102466.78
2023-05-24T14:03:48.944Z,102458.72
2023-05-24T14:06:15.865Z,102454.34
2023-05-24T14:08:42.540Z,102461.72
2023-05-24T14:11:09.366Z,102456.50
2023-05-24T14:16:06.727Z,102459.34
2023-05-24T14:18:33.711Z,102450.56
2023-05-24T14:21:00.277Z,102444.88
2023-05-24T14:23:27.513Z,102444.00
2023-05-24T14:25:54.122Z,102450.97
2023-05-24T14:28:20.979Z,102448.72
2023-05-24T14:30:47.668Z,102450.03
2023-05-24T14:33:14.315Z,102442.44
2023-05-24T14:35:41.496Z,102441.84
2023-05-24T14:38:10.806Z,102440.91
2023-05-24T14:40:40.414Z,102432.03
2023-05-24T14:43:10.233Z,102442.56
2023-05-24T14:45:38.718Z,102432.22
2023-05-24T14:48:05.955Z,102439.03
2023-05-24T14:50:32.613Z,102438.25
2023-05-24T14:53:00.524Z,102432.25
2023-05-24T14:55:27.055Z,102444.00
2023-05-24T14:57:53.620Z,102438.88
2023-05-24T15:00:22.765Z,102441.63
2023-05-24T15:02:50.982Z,102437.47
2023-05-24T15:05:17.889Z,102440.63
2023-05-24T15:07:44.582Z,102441.81
2023-05-24T15:10:11.849Z,102436.50
2023-05-24T15:12:40.033Z,102436.22
2023-05-24T15:15:07.824Z,102435.16
2023-05-24T15:17:34.683Z,102445.41
2023-05-24T15:20:01.853Z,102458.97
2023-05-24T15:22:28.571Z,102440.38
2023-05-24T15:24:56.169Z,102444.19
2023-05-24T15:27:23.077Z,102438.69
2023-05-24T15:29:54.327Z,102444.81
2023-05-24T15:32:21.171Z,102439.19
2023-05-24T15:34:47.820Z,102439.91
2023-05-24T15:37:14.435Z,102441.63
2023-05-24T15:39:41.559Z,102442.06
2023-05-24T15:42:08.750Z,102442.97
2023-05-24T15:44:35.425Z,102439.94
2023-05-24T15:47:02.178Z,102440.91
2023-05-24T15:49:29.364Z,102434.38
2023-05-24T15:54:25.897Z,102440.41
2023-05-24T15:56:52.687Z,102439.88
2023-05-24T15:59:21.531Z,102441.66
2023-05-24T16:01:48.412Z,102442.13
2023-05-24T16:04:15.859Z,102444.38
2023-05-24T16:06:42.894Z,102445.59
2023-05-24T16:09:09.697Z,102451.25
2023-05-24T16:11:36.510Z,102457.13
2023-05-24T16:14:03.682Z,102446.75
2023-05-24T16:16:30.420Z,102448.91
2023-05-24T16:18:56.992Z,102448.50
2023-05-24T16:21:24.459Z,102448.34
2023-05-24T16:23:51.186Z,102447.53
2023-05-24T16:26:19.175Z,102448.59
2023-05-24T16:28:45.913Z,102452.91
2023-05-24T16:31:12.648Z,102452.06
2023-05-24T16:33:39.915Z,102435.72
2023-05-24T16:36:06.897Z,102439.00
2023-05-24T16:38:34.100Z,102445.63
2023-05-24T16:41:00.942Z,102437.69
2023-05-24T16:43:27.888Z,102444.56
2023-05-24T16:45:55.264Z,102441.69
2023-05-24T16:48:29.211Z,102435.34
2023-05-24T16:50:56.783Z,102435.44
2023-05-24T16:53:27.239Z,102438.25
2023-05-24T16:55:56.100Z,102437.69
2023-05-24T16:58:24.241Z,102440.63
2023-05-24T17:00:51.392Z,102441.97
2023-05-24T17:03:18.506Z,102440.28
2023-05-24T17:05:46.531Z,102440.09
2023-05-24T17:08:13.271Z,102444.41
2023-05-24T17:10:43.348Z,102442.38
2023-05-24T17:13:10.364Z,102435.31
2023-05-24T17:15:37.488Z,102430.97
2023-05-24T17:18:04.264Z,102430.00
2023-05-24T17:20:32.223Z,102433.88
2023-05-24T17:22:58.929Z,102438.53
2023-05-24T17:25:25.528Z,102441.03
2023-05-24T17:27:53.155Z,102437.28
2023-05-24T17:30:25.669Z,102437.53
2023-05-24T17:32:52.607Z,102440.59
2023-05-24T17:35:19.324Z,102444.38
2023-05-24T17:37:46.085Z,102444.84
2023-05-24T17:40:12.687Z,102443.72
2023-05-24T17:42:39.323Z,102451.91
2023-05-24T17:45:07.755Z,102440.97
2023-05-24T17:47:35.016Z,102447.03
2023-05-24T17:50:03.355Z,102446.53
2023-05-24T17:52:30.067Z,102447.13
2023-05-24T17:54:56.829Z,102457.50
2023-05-24T17:57:23.746Z,102455.00
2023-05-24T17:59:50.577Z,102457.06
2023-05-24T18:02:17.334Z,102455.91
2023-05-24T18:04:44.283Z,102452.38
2023-05-24T18:07:11.381Z,102450.97
2023-05-24T18:09:39.997Z,102459.31
2023-05-24T18:12:08.775Z,102458.28
2023-05-24T18:14:35.475Z,102462.16
2023-05-24T18:17:02.462Z,102465.34
2023-05-24T18:19:29.588Z,102462.25
2023-05-24T18:22:02.140Z,102460.53
2023-05-24T18:24:28.969Z,102465.09
2023-05-24T18:26:55.638Z,102467.03
2023-05-24T18:29:22.361Z,102459.19
2023-05-24T18:31:49.493Z,102461.38
2023-05-24T18:34:18.975Z,102471.22
2023-05-24T18:36:45.811Z,102465.75
2023-05-24T18:39:14.210Z,102466.56
2023-05-24T18:41:40.834Z,102466.84
2023-05-24T18:44:07.498Z,102468.00
2023-05-24T18:46:34.887Z,102477.44
2023-05-24T18:49:03.271Z,102474.63
2023-05-24T18:51:36.044Z,102477.00
2023-05-24T18:54:02.704Z,102470.97
2023-05-24T18:56:29.626Z,102473.63
2023-05-24T18:58:58.791Z,102471.34
2023-05-24T19:01:27.623Z,102479.78
2023-05-24T19:03:54.638Z,102480.16
2023-05-24T19:06:21.382Z,102480.28
2023-05-24T19:08:49.552Z,102488.97
2023-05-24T19:11:16.244Z,102487.34
2023-05-24T19:13:43.010Z,102493.03
2023-05-24T19:18:52.455Z,102479.56
2023-05-24T19:21:19.371Z,102485.53
2023-05-24T19:23:47.230Z,102481.75
2023-05-24T19:26:18.360Z,102486.41
2023-05-24T19:28:50.791Z,102496.09
2023-05-24T19:31:24.231Z,102491.44
2023-05-24T19:36:26.680Z,102501.66
2023-05-24T19:38:54.764Z,102503.59
2023-05-24T19:41:21.403Z,102500.72
2023-05-24T19:43:48.318Z,102507.47
2023-05-24T19:46:16.748Z,102513.03
2023-05-24T19:48:44.459Z,102512.44
2023-05-24T19:51:13.232Z,102516.19
2023-05-24T19:53:40.087Z,102512.66
2023-05-24T19:56:06.954Z,102518.78
2023-05-24T19:58:33.704Z,102511.25
2023-05-24T20:01:01.344Z,102521.38
2023-05-24T20:03:28.201Z,102519.78
2023-05-24T20:05:56.453Z,102527.84
2023-05-24T20:08:24.703Z,102532.84
2023-05-24T20:10:51.515Z,102530.00
2023-05-24T20:13:18.209Z,102532.56
2023-05-24T20:15:44.969Z,102529.38
2023-05-24T20:18:14.390Z,102533.78
2023-05-24T20:20:41.202Z,102530.59
2023-05-24T20:23:09.089Z,102539.28
2023-05-24T20:25:35.869Z,102539.78
2023-05-24T20:28:04.138Z,102547.25
2023-05-24T20:30:31.436Z,102537.25
2023-05-24T20:32:58.851Z,102548.22
2023-05-24T20:35:25.672Z,102553.38
2023-05-24T20:37:52.836Z,102548.59
2023-05-24T20:40:28.462Z,102550.53
2023-05-24T20:42:55.429Z,102555.78
2023-05-24T20:45:22.222Z,102556.31
2023-05-24T20:47:49.132Z,102557.75
2023-05-24T20:50:15.904Z,102553.44
2023-05-24T20:52:42.654Z,102563.56
2023-05-24T20:55:09.414Z,102555.88
2023-05-24T20:57:36.429Z,102556.22
2023-05-24T21:00:05.820Z,102559.75
2023-05-24T21:02:32.856Z,102562.22
2023-05-24T21:04:59.813Z,102564.31
2023-05-24T21:07:27.094Z,102562.41
2023-05-24T21:09:54.341Z,102567.22
2023-05-24T21:12:23.465Z,102567.91
2023-05-24T21:14:54.006Z,102564.53
2023-05-24T21:17:20.841Z,102568.72
2023-05-24T21:19:47.424Z,102562.78
2023-05-24T21:22:14.395Z,102567.78
2023-05-24T21:24:41.095Z,102572.25
2023-05-24T21:27:07.999Z,102576.78
2023-05-24T21:29:38.085Z,102582.84
2023-05-24T21:32:04.858Z,102579.03
2023-05-24T21:34:33.830Z,102580.66
2023-05-24T21:37:01.158Z,102584.19
2023-05-24T21:39:27.814Z,102589.13
2023-05-24T21:41:54.485Z,102590.44
2023-05-24T21:44:22.410Z,102592.50
2023-05-24T21:46:50.647Z,102586.91
2023-05-24T21:49:17.434Z,102601.19
2023-05-24T21:51:45.231Z,102596.38
2023-05-24T21:54:11.834Z,102602.94
2023-05-24T21:56:38.361Z,102604.22
2023-05-24T21:59:05.049Z,102601.16
2023-05-24T22:01:31.807Z,102601.97
2023-05-24T22:03:59.289Z,102608.50
2023-05-24T22:06:26.295Z,102610.75
2023-05-24T22:08:55.700Z,102608.66
2023-05-24T22:11:22.403Z,102608.66
2023-05-24T22:13:49.031Z,102604.03
2023-05-24T22:16:15.904Z,102618.09
2023-05-24T22:18:42.454Z,102618.09
2023-05-24T22:21:09.165Z,102618.06
2023-05-24T22:23:35.779Z,102623.50
2023-05-24T22:26:02.469Z,102628.94
2023-05-24T22:28:29.098Z,102626.38
2023-05-24T22:30:57.404Z,102629.56
2023-05-24T22:33:23.953Z,102631.31
2023-05-24T22:35:51.380Z,102624.59
2023-05-24T22:38:17.893Z,102628.59
2023-05-24T22:40:45.695Z,102622.03
2023-05-24T22:43:12.214Z,102626.06
2023-05-24T22:45:38.767Z,102623.13
2023-05-24T22:48:05.515Z,102631.63
2023-05-24T22:50:32.290Z,102624.59
2023-05-24T22:52:58.830Z,102629.22
2023-05-24T22:55:25.465Z,102631.91
2023-05-24T22:57:51.944Z,102631.13
2023-05-24T23:00:18.693Z,102625.19
2023-05-24T23:02:45.180Z,102631.75
2023-05-24T23:05:11.788Z,102626.56
2023-05-24T23:07:39.849Z,102629.56
2023-05-24T23:10:08.002Z,102642.88
2023-05-24T23:12:35.821Z,102638.53
2023-05-24T23:15:02.636Z,102635.09
2023-05-24T23:17:29.362Z,102636.72
2023-05-24T23:19:56.053Z,102634.47
2023-05-24T23:22:23.697Z,102635.91
2023-05-24T23:24:50.352Z,102636.22
2023-05-24T23:27:17.266Z,102643.38
2023-05-24T23:29:43.774Z,102642.72
2023-05-24T23:32:10.543Z,102639.16
2023-05-24T23:34:37.361Z,102641.19
2023-05-24T23:37:04.845Z,102640.81
2023-05-24T23:39:31.651Z,102644.03
2023-05-24T23:41:58.203Z,102640.63
2023-05-24T23:44:25.714Z,102634.19
2023-05-24T23:46:53.252Z,102638.75
2023-05-24T23:49:20.476Z,102642.00
2023-05-24T23:51:47.378Z,102634.47
2023-05-24T23:54:19.003Z,102636.50
2023-05-24T23:56:45.866Z,102651.06
2023-05-24T23:59:12.618Z,102638.91
